createdAt,value
2018-02-16T00:01:05.611Z,14.97
2018-02-16T00:03:33.944Z,18.57
2018-02-16T00:06:02.243Z,17.70
2018-02-16T00:08:30.774Z,18.37
2018-02-16T00:10:59.409Z,15.27
2018-02-16T00:13:27.787Z,18.48
2018-02-16T00:15:56.252Z,15.80
2018-02-16T00:18:24.675Z,18.90
2018-02-16T00:20:53.106Z,17.30
2018-02-16T00:23:21.403Z,18.57
2018-02-16T00:25:49.827Z,17.70
2018-02-16T00:28:18.202Z,17.23
2018-02-16T00:30:46.888Z,15.27
2018-02-16T00:33:15.341Z,16.17
2018-02-16T00:35:43.725Z,16.70
2018-02-16T00:38:12.110Z,18.10
2018-02-16T00:40:40.450Z,18.70
2018-02-16T00:43:08.785Z,16.73
2018-02-16T00:45:37.147Z,15.57
2018-02-16T00:48:05.464Z,17.27
2018-02-16T00:50:33.905Z,16.42
2018-02-16T00:53:03.037Z,17.77
2018-02-16T00:55:35.664Z,16.50
2018-02-16T00:58:04.064Z,16.13
2018-02-16T01:00:32.453Z,18.63
2018-02-16T01:03:00.801Z,17.50
2018-02-16T01:05:29.488Z,15.73
2018-02-16T01:07:57.898Z,17.87
2018-02-16T01:10:26.217Z,16.57
2018-02-16T01:12:54.683Z,16.53
2018-02-16T01:15:23.082Z,14.20
2018-02-16T01:17:51.361Z,18.27
2018-02-16T01:20:19.786Z,16.73
2018-02-16T01:22:48.113Z,17.03
2018-02-16T01:25:16.487Z,16.60
2018-02-16T01:27:44.873Z,19.20
2018-02-16T01:30:13.673Z,17.40
2018-02-16T01:32:42.088Z,15.97
2018-02-16T01:35:10.430Z,17.33
2018-02-16T01:37:39.095Z,16.60
2018-02-16T01:40:07.556Z,17.37
2018-02-16T01:42:35.972Z,16.63
2018-02-16T01:45:04.358Z,17.37
2018-02-16T01:47:32.663Z,15.73
2018-02-16T01:50:06.739Z,16.30
2018-02-16T01:52:35.254Z,14.97
2018-02-16T01:55:03.604Z,16.27
2018-02-16T01:57:31.947Z,15.82
2018-02-16T02:00:00.389Z,14.67
2018-02-16T02:02:28.727Z,17.47
2018-02-16T02:04:57.824Z,15.67
2018-02-16T02:07:26.282Z,16.73
2018-02-16T02:09:54.603Z,15.97
2018-02-16T02:12:23.142Z,14.73
2018-02-16T02:14:51.507Z,16.47
2018-02-16T02:17:19.892Z,19.65
2018-02-16T02:19:48.416Z,17.90
2018-02-16T02:22:16.727Z,16.87
2018-02-16T02:24:45.057Z,16.97
2018-02-16T02:27:13.458Z,15.30
2018-02-16T02:29:41.785Z,15.37
2018-02-16T02:32:10.220Z,15.10
2018-02-16T02:37:18.867Z,14.23
2018-02-16T02:39:47.653Z,16.30
2018-02-16T02:42:16.188Z,17.48
2018-02-16T02:44:44.576Z,16.33
2018-02-16T02:47:13.055Z,15.90
2018-02-16T02:49:41.527Z,15.65
2018-02-16T02:52:09.868Z,17.10
2018-02-16T02:54:38.222Z,15.67
2018-02-16T02:57:07.631Z,13.65
2018-02-16T02:59:36.097Z,16.50
2018-02-16T03:02:04.444Z,16.55
2018-02-16T03:04:32.762Z,17.77
2018-02-16T03:07:01.162Z,16.25
2018-02-16T03:09:29.516Z,16.70
2018-02-16T03:11:57.968Z,15.60
2018-02-16T03:14:26.389Z,17.00
2018-02-16T03:16:55.551Z,14.73
2018-02-16T03:19:24.170Z,16.27
2018-02-16T03:21:52.470Z,16.90
2018-02-16T03:24:20.797Z,15.70
2018-02-16T03:26:49.173Z,14.73
2018-02-16T03:29:17.482Z,15.60
2018-02-16T03:31:45.828Z,15.05
2018-02-16T03:34:15.347Z,18.27
2018-02-16T03:36:43.784Z,15.88
2018-02-16T03:39:12.236Z,16.60
2018-02-16T03:41:40.684Z,16.77
2018-02-16T03:44:09.283Z,17.00
2018-02-16T03:46:37.657Z,13.52
2018-02-16T03:49:06.080Z,14.65
2018-02-16T03:51:34.563Z,17.50
2018-02-16T03:54:06.496Z,16.90
2018-02-16T03:56:35.106Z,19.40
2018-02-16T04:02:03.439Z,21.85
2018-02-16T04:04:31.821Z,20.42
2018-02-16T04:07:00.132Z,21.30
2018-02-16T04:09:28.486Z,19.83
2018-02-16T04:11:56.787Z,17.62
2018-02-16T04:14:25.384Z,20.30
2018-02-16T04:16:53.704Z,22.23
2018-02-16T04:19:24.961Z,17.55
2018-02-16T04:22:01.910Z,18.12
2018-02-16T04:24:32.820Z,16.37
2018-02-16T04:27:01.615Z,19.23
2018-02-16T04:29:29.927Z,16.77
2018-02-16T04:31:58.287Z,15.63
2018-02-16T04:34:26.610Z,22.93
2018-02-16T04:36:54.958Z,22.95
2018-02-16T04:39:23.295Z,20.00
2018-02-16T04:41:51.606Z,19.40
2018-02-16T04:44:19.995Z,21.52
2018-02-16T04:46:48.382Z,16.33
2018-02-16T04:49:17.127Z,18.77
2018-02-16T04:51:45.472Z,18.17
2018-02-16T04:54:13.792Z,17.90
2018-02-16T04:56:42.152Z,18.35
2018-02-16T04:59:10.497Z,16.55
2018-02-16T05:01:38.893Z,17.90
2018-02-16T05:04:07.314Z,16.00
2018-02-16T05:06:35.643Z,17.55
2018-02-16T05:09:04.109Z,15.50
2018-02-16T05:11:32.503Z,17.75
2018-02-16T05:14:00.908Z,17.10
2018-02-16T05:16:29.275Z,15.85
2018-02-16T05:18:57.681Z,17.30
2018-02-16T05:21:26.018Z,17.05
2018-02-16T05:23:54.518Z,18.12
2018-02-16T05:26:22.855Z,16.67
2018-02-16T05:28:51.690Z,15.13
2018-02-16T05:31:20.096Z,16.70
2018-02-16T05:33:48.597Z,17.48
2018-02-16T05:36:18.701Z,17.42
2018-02-16T05:38:49.116Z,15.77
2018-02-16T05:41:17.594Z,20.85
2018-02-16T05:43:46.011Z,21.08
2018-02-16T05:46:14.339Z,13.47
2018-02-16T05:48:44.280Z,16.92
2018-02-16T05:51:12.626Z,12.77
2018-02-16T05:53:40.959Z,16.67
2018-02-16T05:56:09.420Z,15.45
2018-02-16T05:58:37.847Z,14.77
2018-02-16T06:01:06.996Z,12.65
2018-02-16T06:03:35.508Z,15.45
2018-02-16T06:06:03.869Z,15.35
2018-02-16T06:08:32.187Z,13.88
2018-02-16T06:11:00.505Z,19.27
2018-02-16T06:13:29.085Z,11.98
2018-02-16T06:16:01.351Z,12.35
2018-02-16T06:18:29.755Z,15.30
2018-02-16T06:20:58.285Z,14.85
2018-02-16T06:23:26.734Z,17.95
2018-02-16T06:25:55.064Z,15.93
2018-02-16T06:28:23.589Z,13.02
2018-02-16T06:30:51.992Z,14.00
2018-02-16T06:33:20.320Z,10.88
2018-02-16T06:35:48.701Z,17.05
2018-02-16T06:38:17.163Z,14.23
2018-02-16T06:40:49.100Z,13.23
2018-02-16T06:43:18.420Z,14.55
2018-02-16T06:45:52.881Z,16.00
2018-02-16T06:48:23.247Z,14.68
2018-02-16T06:50:51.598Z,13.82
2018-02-16T06:53:23.288Z,10.68
2018-02-16T06:55:52.628Z,15.13
2018-02-16T07:00:59.910Z,11.15
2018-02-16T07:06:31.876Z,10.65
2018-02-16T07:09:00.173Z,9.63
2018-02-16T07:11:43.490Z,11.20
2018-02-16T07:14:11.820Z,11.15
2018-02-16T07:16:41.705Z,12.25
2018-02-16T07:19:22.878Z,9.90
2018-02-16T07:21:52.906Z,13.88
2018-02-16T07:24:21.243Z,15.48
2018-02-16T07:26:54.982Z,15.15
2018-02-16T07:29:23.558Z,14.57
2018-02-16T07:31:51.952Z,9.52
2018-02-16T07:34:21.863Z,13.25
2018-02-16T07:36:50.288Z,9.43
2018-02-16T07:39:18.891Z,10.95
2018-02-16T07:41:47.204Z,9.70
2018-02-16T07:44:15.584Z,14.07
2018-02-16T07:46:43.936Z,16.27
2018-02-16T07:49:12.246Z,13.13
2018-02-16T07:57:40.361Z,11.70
2018-02-16T08:03:18.659Z,12.70
2018-02-16T08:06:00.012Z,15.90
2018-02-16T08:08:28.409Z,16.05
2018-02-16T08:11:01.471Z,15.45
2018-02-16T08:13:30.691Z,13.17
2018-02-16T08:16:00.048Z,13.48
2018-02-16T08:18:28.400Z,16.05
2018-02-16T08:20:59.964Z,15.00
2018-02-16T08:23:28.873Z,15.68
2018-02-16T08:25:57.266Z,18.87
2018-02-16T08:28:26.504Z,13.20
2018-02-16T08:31:01.963Z,14.15
2018-02-16T08:33:38.827Z,16.77
2018-02-16T08:36:07.539Z,14.63
2018-02-16T08:38:36.152Z,16.80
2018-02-16T08:41:04.471Z,17.93
2018-02-16T08:43:32.816Z,18.30
2018-02-16T08:46:01.199Z,15.07
2018-02-16T08:48:29.504Z,15.55
2018-02-16T08:50:57.791Z,14.02
2018-02-16T08:53:26.159Z,17.85
2018-02-16T08:55:54.472Z,15.63
2018-02-16T08:58:22.926Z,14.15
2018-02-16T09:01:12.921Z,16.10
2018-02-16T09:03:41.283Z,15.65
2018-02-16T09:06:09.747Z,14.13
2018-02-16T09:08:38.940Z,17.53
2018-02-16T09:11:07.238Z,15.07
2018-02-16T09:13:35.757Z,17.92
2018-02-16T09:16:04.062Z,14.40
2018-02-16T09:18:32.411Z,15.68
2018-02-16T09:21:01.724Z,15.73
2018-02-16T09:23:30.058Z,18.57
2018-02-16T09:25:58.448Z,15.57
2018-02-16T09:31:24.313Z,17.30
2018-02-16T09:33:52.625Z,16.33
2018-02-16T09:36:21.076Z,12.43
2018-02-16T09:38:50.175Z,16.03
2018-02-16T09:41:23.139Z,17.70
2018-02-16T09:43:52.137Z,16.00
2018-02-16T09:49:45.960Z,17.80
2018-02-16T09:52:14.309Z,16.90
2018-02-16T09:54:42.750Z,16.57
2018-02-16T09:57:24.747Z,17.80
2018-02-16T10:03:02.815Z,19.33
2018-02-16T10:08:41.255Z,18.33
2018-02-16T10:11:09.694Z,18.97
2018-02-16T10:13:39.605Z,18.83
2018-02-16T10:16:07.961Z,21.80
2018-02-16T10:18:36.295Z,16.47
2018-02-16T10:21:04.607Z,18.80
2018-02-16T10:23:34.700Z,17.70
2018-02-16T10:26:03.048Z,14.87
2018-02-16T10:28:32.107Z,14.00
2018-02-16T10:31:01.182Z,15.20
2018-02-16T10:33:29.603Z,16.53
2018-02-16T10:35:57.903Z,14.20
2018-02-16T10:38:26.264Z,17.47
2018-02-16T10:40:54.734Z,16.23
2018-02-16T10:43:23.047Z,13.10
2018-02-16T10:45:51.350Z,16.10
2018-02-16T10:48:19.692Z,15.20
2018-02-16T10:50:50.362Z,16.30
2018-02-16T10:53:18.687Z,16.30
2018-02-16T10:55:47.010Z,14.30
2018-02-16T10:58:16.125Z,14.10
2018-02-16T11:00:49.769Z,14.60
2018-02-16T11:03:24.506Z,15.77
2018-02-16T11:05:54.050Z,13.90
2018-02-16T11:08:27.886Z,14.10
2018-02-16T11:10:59.209Z,16.30
2018-02-16T11:13:27.596Z,17.33
2018-02-16T11:18:52.175Z,14.80
2018-02-16T11:21:22.759Z,15.47
2018-02-16T11:24:02.729Z,14.57
2018-02-16T11:26:43.688Z,15.10
2018-02-16T11:29:12.115Z,15.03
2018-02-16T11:31:49.857Z,14.20
2018-02-16T11:34:18.260Z,14.80
2018-02-16T11:36:46.646Z,16.57
2018-02-16T11:39:14.987Z,16.43
2018-02-16T11:41:43.341Z,15.40
2018-02-16T11:44:11.682Z,14.53
2018-02-16T11:46:40.000Z,16.10
2018-02-16T11:49:08.304Z,15.70
2018-02-16T11:51:36.639Z,17.27
2018-02-16T11:54:07.827Z,17.60
2018-02-16T11:56:36.386Z,18.53
2018-02-16T11:59:04.742Z,16.33
2018-02-16T12:01:33.141Z,13.80
2018-02-16T12:04:01.432Z,16.73
2018-02-16T12:06:31.726Z,17.27
2018-02-16T12:09:00.055Z,15.97
2018-02-16T12:11:28.488Z,15.10
2018-02-16T12:13:57.152Z,17.10
2018-02-16T12:16:25.510Z,19.67
2018-02-16T12:18:55.819Z,15.77
2018-02-16T12:21:24.172Z,18.10
2018-02-16T12:23:52.627Z,18.80
2018-02-16T12:26:20.967Z,16.80
2018-02-16T12:28:50.417Z,16.03
2018-02-16T12:31:18.773Z,15.53
2018-02-16T12:33:47.138Z,16.17
2018-02-16T12:36:15.542Z,17.07
2018-02-16T12:38:43.975Z,16.10
2018-02-16T12:41:12.393Z,18.20
2018-02-16T12:43:40.679Z,19.40
2018-02-16T12:46:09.019Z,16.33
2018-02-16T12:48:39.100Z,15.50
2018-02-16T12:51:07.813Z,16.40
2018-02-16T12:53:36.274Z,18.50
2018-02-16T12:56:04.639Z,16.70
2018-02-16T12:58:33.081Z,19.90
2018-02-16T13:01:01.426Z,17.80
2018-02-16T13:03:29.762Z,17.97
2018-02-16T13:05:58.052Z,18.70
2018-02-16T13:08:28.361Z,19.10
2018-02-16T13:10:56.787Z,19.53
2018-02-16T13:13:26.011Z,17.00
2018-02-16T13:15:56.259Z,17.70
2018-02-16T13:18:24.682Z,16.80
2018-02-16T13:20:52.992Z,17.30
2018-02-16T13:23:21.355Z,16.20
2018-02-16T13:25:49.984Z,17.33
2018-02-16T13:28:18.375Z,16.00
2018-02-16T13:30:46.721Z,16.13
2018-02-16T13:33:15.117Z,15.30
2018-02-16T13:35:43.709Z,16.23
2018-02-16T13:38:22.502Z,14.53
2018-02-16T13:40:51.344Z,16.17
2018-02-16T13:43:19.701Z,17.00
2018-02-16T13:49:07.861Z,15.30
2018-02-16T13:51:48.261Z,17.30
2018-02-16T13:54:16.619Z,15.10
2018-02-16T14:02:47.426Z,17.10
2018-02-16T14:05:15.756Z,16.63
2018-02-16T14:07:58.662Z,17.40
2018-02-16T14:10:28.235Z,17.00
2018-02-16T14:12:56.605Z,17.63
2018-02-16T14:15:24.931Z,18.13
2018-02-16T14:17:56.935Z,18.37
2018-02-16T14:20:25.258Z,17.97
2018-02-16T14:25:43.719Z,17.93
2018-02-16T14:31:21.994Z,21.03
2018-02-16T14:33:50.309Z,17.87
2018-02-16T14:36:19.055Z,19.77
2018-02-16T14:38:47.363Z,21.27
2018-02-16T14:41:15.681Z,19.60
2018-02-16T14:43:44.062Z,20.50
2018-02-16T14:46:12.564Z,18.90
2018-02-16T14:48:41.147Z,19.40
2018-02-16T14:51:09.456Z,20.47
2018-02-16T14:53:37.793Z,19.50
2018-02-16T14:56:06.213Z,20.57
2018-02-16T14:58:35.488Z,20.30
2018-02-16T15:01:03.968Z,21.83
2018-02-16T15:03:32.730Z,18.47
2018-02-16T15:06:01.058Z,17.77
2018-02-16T15:08:29.511Z,18.13
2018-02-16T15:11:00.537Z,18.60
2018-02-16T15:13:29.286Z,19.90
2018-02-16T15:15:57.652Z,19.30
2018-02-16T15:18:35.256Z,18.90
2018-02-16T15:21:03.640Z,18.93
2018-02-16T15:23:32.882Z,17.13
2018-02-16T15:26:01.215Z,18.37
2018-02-16T15:28:37.746Z,18.40
2018-02-16T15:31:19.326Z,16.97
2018-02-16T15:33:48.416Z,19.93
2018-02-16T15:36:21.543Z,18.97
2018-02-16T15:38:50.823Z,18.70
2018-02-16T15:41:20.127Z,17.37
2018-02-16T15:43:48.635Z,17.60
2018-02-16T15:46:21.581Z,19.80
2018-02-16T15:48:49.913Z,18.07
2018-02-16T15:51:18.242Z,19.83
2018-02-16T15:53:46.599Z,19.07
2018-02-16T15:59:16.431Z,18.10
2018-02-16T16:01:44.907Z,18.57
2018-02-16T16:04:21.343Z,17.17
2018-02-16T16:10:19.880Z,18.13
2018-02-16T16:15:37.014Z,19.93
2018-02-16T16:18:20.370Z,17.87
2018-02-16T16:27:08.938Z,18.03
2018-02-16T16:29:37.289Z,18.77
2018-02-16T16:32:10.803Z,18.87
2018-02-16T16:34:44.484Z,20.23
2018-02-16T16:37:13.169Z,19.10
2018-02-16T16:39:42.505Z,18.87
2018-02-16T16:42:36.831Z,17.80
2018-02-16T16:48:17.316Z,20.90
2018-02-16T16:50:45.698Z,18.03
2018-02-16T16:53:16.515Z,17.53
2018-02-16T16:56:04.270Z,19.70
2018-02-16T16:58:32.688Z,19.63
2018-02-16T17:01:00.996Z,19.50
2018-02-16T17:03:29.334Z,20.87
2018-02-16T17:05:57.739Z,18.47
2018-02-16T17:08:29.804Z,20.10
2018-02-16T17:20:01.712Z,19.40
2018-02-16T17:22:30.058Z,19.57
2018-02-16T17:25:00.526Z,21.67
2018-02-16T17:27:29.028Z,20.00
2018-02-16T17:33:07.054Z,18.37
2018-02-16T17:35:35.467Z,17.77
2018-02-16T17:38:03.792Z,19.97
2018-02-16T17:40:32.212Z,16.90
2018-02-16T17:43:00.584Z,18.50
2018-02-16T17:45:36.459Z,19.47
2018-02-16T17:48:04.801Z,18.40
2018-02-16T17:50:33.426Z,20.57
2018-02-16T17:53:21.071Z,18.07
2018-02-16T17:58:39.010Z,18.37
2018-02-16T18:01:07.609Z,16.53
2018-02-16T18:03:36.039Z,17.40
2018-02-16T18:09:04.922Z,22.10
2018-02-16T18:11:33.358Z,19.33
2018-02-16T18:17:08.070Z,20.00
2018-02-16T18:22:57.964Z,18.60
2018-02-16T18:25:26.271Z,19.43
2018-02-16T18:27:54.605Z,19.30
2018-02-16T18:30:52.747Z,21.50
2018-02-16T18:33:21.060Z,21.30
2018-02-16T18:38:37.850Z,23.63
2018-02-16T18:41:06.203Z,20.33
2018-02-16T18:43:34.526Z,22.93
2018-02-16T18:46:06.019Z,20.77
2018-02-16T18:48:34.393Z,20.80
2018-02-16T18:51:02.690Z,24.40
2018-02-16T18:53:35.190Z,20.90
2018-02-16T18:56:03.569Z,19.90
2018-02-16T18:58:35.008Z,19.83
2018-02-16T19:05:49.306Z,17.00
2018-02-16T19:08:20.355Z,16.93
2018-02-16T19:10:49.340Z,14.48
2018-02-16T19:13:17.747Z,14.77
2018-02-16T19:15:46.267Z,16.33
2018-02-16T19:18:15.258Z,12.83
2018-02-16T19:20:43.642Z,13.87
2018-02-16T19:23:19.467Z,14.32
2018-02-16T19:25:47.777Z,14.73
2018-02-16T19:28:16.079Z,13.77
2018-02-16T19:30:45.676Z,12.93
2018-02-16T19:33:14.285Z,14.00
2018-02-16T19:35:42.684Z,13.27
2018-02-16T19:38:11.465Z,12.98
2018-02-16T19:40:40.219Z,15.82
2018-02-16T19:43:08.951Z,13.87
2018-02-16T19:45:38.031Z,14.93
2018-02-16T19:48:06.415Z,14.00
2018-02-16T19:50:34.898Z,11.40
2018-02-16T19:53:07.379Z,14.80
2018-02-16T19:55:36.683Z,11.27
2018-02-16T19:58:05.423Z,12.13
2018-02-16T20:00:34.213Z,12.10
2018-02-16T20:03:03.430Z,11.85
2018-02-16T20:05:38.622Z,12.37
2018-02-16T20:08:07.013Z,13.10
2018-02-16T20:10:35.973Z,13.60
2018-02-16T20:13:04.621Z,12.35
2018-02-16T20:15:33.471Z,11.18
2018-02-16T20:18:01.957Z,11.15
2018-02-16T20:20:32.339Z,11.05
2018-02-16T20:23:01.970Z,11.63
2018-02-16T20:25:30.371Z,11.90
2018-02-16T20:27:58.723Z,10.30
2018-02-16T20:30:30.315Z,11.75
2018-02-16T20:32:58.940Z,13.13
2018-02-16T20:35:27.341Z,10.50
2018-02-16T20:37:55.739Z,13.27
2018-02-16T20:40:24.111Z,12.60
2018-02-16T20:42:52.470Z,13.05
2018-02-16T20:45:20.898Z,12.90
2018-02-16T20:47:49.528Z,14.40
2018-02-16T20:50:17.924Z,13.93
2018-02-16T20:52:46.244Z,14.45
2018-02-16T20:55:14.736Z,15.23
2018-02-16T20:57:43.084Z,13.32
2018-02-16T21:00:11.587Z,14.05
2018-02-16T21:02:39.940Z,14.73
2018-02-16T21:05:08.292Z,15.50
2018-02-16T21:07:37.568Z,13.18
2018-02-16T21:10:05.916Z,14.32
2018-02-16T21:12:34.252Z,15.57
2018-02-16T21:15:02.784Z,13.60
2018-02-16T21:17:31.099Z,13.88
2018-02-16T21:20:00.204Z,15.05
2018-02-16T21:22:28.616Z,14.77
2018-02-16T21:24:56.930Z,14.45
2018-02-16T21:27:25.291Z,16.33
2018-02-16T21:29:54.625Z,16.20
2018-02-16T21:32:22.979Z,15.20
2018-02-16T21:34:51.342Z,14.30
2018-02-16T21:37:21.257Z,13.93
2018-02-16T21:39:49.653Z,14.73
2018-02-16T21:42:18.076Z,15.13
2018-02-16T21:44:46.490Z,14.55
2018-02-16T21:47:14.834Z,15.23
2018-02-16T21:49:43.242Z,14.18
2018-02-16T21:52:11.616Z,14.98
2018-02-16T21:54:44.451Z,14.10
2018-02-16T21:57:15.300Z,11.65
2018-02-16T21:59:43.675Z,14.18
2018-02-16T22:02:11.997Z,12.07
2018-02-16T22:04:40.343Z,12.23
2018-02-16T22:07:08.825Z,13.10
2018-02-16T22:09:37.214Z,13.10
2018-02-16T22:12:05.579Z,13.75
2018-02-16T22:14:33.953Z,15.32
2018-02-16T22:17:02.324Z,12.75
2018-02-16T22:19:30.678Z,13.85
2018-02-16T22:21:59.031Z,15.25
2018-02-16T22:24:27.548Z,12.80
2018-02-16T22:26:55.877Z,13.20
2018-02-16T22:29:24.281Z,13.35
2018-02-16T22:31:52.610Z,13.05
2018-02-16T22:34:21.018Z,12.82
2018-02-16T22:36:49.423Z,12.48
2018-02-16T22:39:18.027Z,13.88
2018-02-16T22:41:46.383Z,11.65
2018-02-16T22:44:14.755Z,13.65
2018-02-16T22:46:43.356Z,13.85
2018-02-16T22:49:11.671Z,13.50
2018-02-16T22:51:40.073Z,16.30
2018-02-16T22:54:08.496Z,13.23
2018-02-16T22:56:36.874Z,13.55
2018-02-16T22:59:06.252Z,12.60
2018-02-16T23:01:34.856Z,15.57
2018-02-16T23:04:03.316Z,12.40
2018-02-16T23:06:31.704Z,12.00
2018-02-16T23:09:00.069Z,12.82
2018-02-16T23:11:28.406Z,15.27
2018-02-16T23:13:56.802Z,12.70
2018-02-16T23:16:25.162Z,12.93
2018-02-16T23:18:53.603Z,12.52
2018-02-16T23:21:38.654Z,13.23
2018-02-16T23:24:07.171Z,13.75
2018-02-16T23:26:35.552Z,15.38
2018-02-16T23:29:03.930Z,13.62
2018-02-16T23:31:32.526Z,13.77
2018-02-16T23:34:00.871Z,11.57
2018-02-16T23:36:29.228Z,14.82
2018-02-16T23:38:57.608Z,14.20
2018-02-16T23:41:25.924Z,13.85
2018-02-16T23:43:54.312Z,13.20
2018-02-16T23:46:22.696Z,14.30
2018-02-16T23:48:51.059Z,13.27
2018-02-16T23:51:19.534Z,14.63
2018-02-16T23:53:48.661Z,13.25
2018-02-16T23:56:17.955Z,13.40
2018-02-16T23:58:49.343Z,12.48
